sensor_id;sensor_type;location;lat;lon;timestamp;pressure;altitude;pressure_sealevel;temperature;humidity
75668;BME280;64266;48.798;44.756;2023-09-19T00:01:19;102046.66;;;16.75;50.42
75668;BME280;64266;48.798;44.756;2023-09-19T00:06:22;102031.69;;;16.68;50.62
75668;BME280;64266;48.798;44.756;2023-09-19T00:11:28;102042.16;;;16.88;50.59
75668;BME280;64266;48.798;44.756;2023-09-19T00:16:31;102045.56;;;16.95;51.21
75668;BME280;64266;48.798;44.756;2023-09-19T00:21:35;102034.94;;;16.88;51.43
75668;BME280;64266;48.798;44.756;2023-09-19T00:26:40;102032.94;;;16.84;52.17
75668;BME280;64266;48.798;44.756;2023-09-19T00:31:43;102019.22;;;16.62;52.96
75668;BME280;64266;48.798;44.756;2023-09-19T00:36:46;102037.88;;;16.50;54.09
75668;BME280;64266;48.798;44.756;2023-09-19T00:41:50;102055.28;;;16.41;54.56
75668;BME280;64266;48.798;44.756;2023-09-19T00:46:52;102056.63;;;16.32;55.04
75668;BME280;64266;48.798;44.756;2023-09-19T00:51:56;102034.31;;;16.02;55.69
75668;BME280;64266;48.798;44.756;2023-09-19T00:56:59;102027.47;;;15.88;55.34
75668;BME280;64266;48.798;44.756;2023-09-19T01:02:03;102006.03;;;15.69;56.12
75668;BME280;64266;48.798;44.756;2023-09-19T01:07:08;102046.63;;;15.85;56.15
75668;BME280;64266;48.798;44.756;2023-09-19T01:12:12;102030.09;;;15.69;56.70
75668;BME280;64266;48.798;44.756;2023-09-19T01:17:25;102042.78;;;15.81;56.86
75668;BME280;64266;48.798;44.756;2023-09-19T01:32:51;102021.16;;;16.00;55.74
75668;BME280;64266;48.798;44.756;2023-09-19T01:37:55;102004.81;;;15.90;55.99
75668;BME280;64266;48.798;44.756;2023-09-19T01:43:21;102002.22;;;16.02;55.29
75668;BME280;64266;48.798;44.756;2023-09-19T01:54:00;102033.75;;;16.18;55.05
75668;BME280;64266;48.798;44.756;2023-09-19T01:59:18;102027.06;;;16.27;54.79
75668;BME280;64266;48.798;44.756;2023-09-19T02:04:23;102015.53;;;16.26;54.22
75668;BME280;64266;48.798;44.756;2023-09-19T02:09:26;102032.84;;;16.42;53.93
75668;BME280;64266;48.798;44.756;2023-09-19T02:14:30;102032.31;;;16.52;52.76
75668;BME280;64266;48.798;44.756;2023-09-19T02:19:33;102027.84;;;16.46;53.12
75668;BME280;64266;48.798;44.756;2023-09-19T02:24:37;102049.88;;;16.66;52.95
75668;BME280;64266;48.798;44.756;2023-09-19T02:29:40;102051.72;;;16.65;53.35
75668;BME280;64266;48.798;44.756;2023-09-19T02:34:43;102048.38;;;16.70;52.59
75668;BME280;64266;48.798;44.756;2023-09-19T02:39:47;102038.66;;;16.57;53.11
75668;BME280;64266;48.798;44.756;2023-09-19T02:44:50;102045.34;;;16.66;53.61
75668;BME280;64266;48.798;44.756;2023-09-19T02:49:53;102053.75;;;16.70;53.53
75668;BME280;64266;48.798;44.756;2023-09-19T02:54:58;102057.00;;;16.72;53.31
75668;BME280;64266;48.798;44.756;2023-09-19T03:00:04;102057.38;;;16.75;54.02
75668;BME280;64266;48.798;44.756;2023-09-19T03:05:07;102066.81;;;16.78;53.92
75668;BME280;64266;48.798;44.756;2023-09-19T03:10:10;102064.00;;;16.73;54.33
75668;BME280;64266;48.798;44.756;2023-09-19T03:15:14;102077.31;;;16.79;54.69
75668;BME280;64266;48.798;44.756;2023-09-19T03:20:23;102086.53;;;16.84;55.05
75668;BME280;64266;48.798;44.756;2023-09-19T03:25:25;102072.53;;;16.82;54.87
75668;BME280;64266;48.798;44.756;2023-09-19T03:30:28;102106.34;;;17.12;54.20
75668;BME280;64266;48.798;44.756;2023-09-19T03:35:31;102095.75;;;17.17;54.06
75668;BME280;64266;48.798;44.756;2023-09-19T03:40:35;102075.47;;;17.10;53.26
75668;BME280;64266;48.798;44.756;2023-09-19T03:45:40;102093.91;;;17.29;53.07
75668;BME280;64266;48.798;44.756;2023-09-19T03:50:44;102087.41;;;17.37;51.61
75668;BME280;64266;48.798;44.756;2023-09-19T03:55:47;102093.06;;;17.47;51.21
75668;BME280;64266;48.798;44.756;2023-09-19T04:00:56;102122.63;;;17.70;51.70
75668;BME280;64266;48.798;44.756;2023-09-19T04:06:01;102083.41;;;17.58;51.63
75668;BME280;64266;48.798;44.756;2023-09-19T04:11:05;102089.72;;;17.63;51.15
75668;BME280;64266;48.798;44.756;2023-09-19T04:16:08;102101.16;;;17.82;50.17
75668;BME280;64266;48.798;44.756;2023-09-19T04:21:12;102114.81;;;17.92;50.60
75668;BME280;64266;48.798;44.756;2023-09-19T04:26:16;102076.66;;;17.78;50.97
75668;BME280;64266;48.798;44.756;2023-09-19T04:31:18;102102.22;;;17.93;50.83
75668;BME280;64266;48.798;44.756;2023-09-19T04:36:23;102121.03;;;18.04;51.38
75668;BME280;64266;48.798;44.756;2023-09-19T04:41:37;102060.91;;;17.70;51.61
75668;BME280;64266;48.798;44.756;2023-09-19T04:46:44;102117.03;;;18.18;52.01
75668;BME280;64266;48.798;44.756;2023-09-19T04:51:48;102122.28;;;18.36;51.87
75668;BME280;64266;48.798;44.756;2023-09-19T04:56:52;102111.06;;;18.28;51.94
75668;BME280;64266;48.798;44.756;2023-09-19T05:01:55;102082.75;;;18.09;52.19
75668;BME280;64266;48.798;44.756;2023-09-19T05:06:59;102127.22;;;18.51;50.76
75668;BME280;64266;48.798;44.756;2023-09-19T05:12:05;102097.88;;;18.50;49.17
75668;BME280;64266;48.798;44.756;2023-09-19T05:17:09;102124.88;;;18.83;48.75
75668;BME280;64266;48.798;44.756;2023-09-19T05:22:12;102126.56;;;19.12;48.18
75668;BME280;64266;48.798;44.756;2023-09-19T05:27:17;102140.84;;;19.41;48.01
75668;BME280;64266;48.798;44.756;2023-09-19T05:32:21;102138.97;;;19.58;47.56
75668;BME280;64266;48.798;44.756;2023-09-19T05:37:25;102144.13;;;19.76;47.75
75668;BME280;64266;48.798;44.756;2023-09-19T05:42:29;102145.44;;;19.90;47.88
75668;BME280;64266;48.798;44.756;2023-09-19T05:47:33;102135.47;;;20.08;47.62
75668;BME280;64266;48.798;44.756;2023-09-19T05:52:40;102142.66;;;20.35;47.63
75668;BME280;64266;48.798;44.756;2023-09-19T05:57:52;102146.59;;;20.49;47.89
75668;BME280;64266;48.798;44.756;2023-09-19T06:02:58;102159.19;;;20.82;47.39
75668;BME280;64266;48.798;44.756;2023-09-19T06:08:00;102168.16;;;21.10;47.25
75668;BME280;64266;48.798;44.756;2023-09-19T06:13:03;102152.88;;;21.20;46.60
75668;BME280;64266;48.798;44.756;2023-09-19T06:18:12;102168.50;;;21.45;46.40
75668;BME280;64266;48.798;44.756;2023-09-19T06:23:23;102171.13;;;21.61;45.37
75668;BME280;64266;48.798;44.756;2023-09-19T06:28:26;102168.63;;;21.87;45.04
75668;BME280;64266;48.798;44.756;2023-09-19T06:33:31;102174.00;;;22.13;42.55
75668;BME280;64266;48.798;44.756;2023-09-19T06:38:34;102161.84;;;22.63;41.53
75668;BME280;64266;48.798;44.756;2023-09-19T06:43:40;102165.41;;;23.41;38.74
75668;BME280;64266;48.798;44.756;2023-09-19T06:48:44;102171.38;;;23.73;38.86
75668;BME280;64266;48.798;44.756;2023-09-19T06:53:47;102158.63;;;24.09;38.22
75668;BME280;64266;48.798;44.756;2023-09-19T06:58:51;102157.00;;;25.56;35.15
75668;BME280;64266;48.798;44.756;2023-09-19T07:03:55;102163.38;;;25.70;34.27
75668;BME280;64266;48.798;44.756;2023-09-19T07:08:58;102138.19;;;25.60;33.87
75668;BME280;64266;48.798;44.756;2023-09-19T07:14:01;102154.16;;;25.66;34.21
75668;BME280;64266;48.798;44.756;2023-09-19T07:19:04;102156.06;;;25.66;32.44
75668;BME280;64266;48.798;44.756;2023-09-19T07:24:08;102160.38;;;25.72;32.64
75668;BME280;64266;48.798;44.756;2023-09-19T07:29:13;102074.84;;;25.30;32.29
75668;BME280;64266;48.798;44.756;2023-09-19T07:34:16;102100.28;;;25.40;31.77
75668;BME280;64266;48.798;44.756;2023-09-19T07:39:21;102142.28;;;25.57;32.14
75668;BME280;64266;48.798;44.756;2023-09-19T07:44:24;102136.13;;;25.42;32.29
75668;BME280;64266;48.798;44.756;2023-09-19T07:49:29;102128.78;;;25.42;32.88
75668;BME280;64266;48.798;44.756;2023-09-19T07:54:32;102143.19;;;25.43;32.48
75668;BME280;64266;48.798;44.756;2023-09-19T07:59:39;102121.81;;;25.31;32.47
75668;BME280;64266;48.798;44.756;2023-09-19T08:04:47;102129.22;;;25.20;32.15
75668;BME280;64266;48.798;44.756;2023-09-19T08:09:51;102129.19;;;25.25;32.39
75668;BME280;64266;48.798;44.756;2023-09-19T08:14:55;102113.53;;;25.12;31.31
75668;BME280;64266;48.798;44.756;2023-09-19T08:19:58;102129.81;;;25.12;31.10
75668;BME280;64266;48.798;44.756;2023-09-19T08:25:01;102098.97;;;24.93;31.40
75668;BME280;64266;48.798;44.756;2023-09-19T08:30:07;102111.84;;;25.16;31.72
75668;BME280;64266;48.798;44.756;2023-09-19T08:35:11;102095.91;;;25.05;31.94
75668;BME280;64266;48.798;44.756;2023-09-19T08:40:15;102060.94;;;24.98;31.85
75668;BME280;64266;48.798;44.756;2023-09-19T08:45:21;102104.19;;;25.28;31.53
75668;BME280;64266;48.798;44.756;2023-09-19T08:50:28;102111.78;;;25.31;31.37
75668;BME280;64266;48.798;44.756;2023-09-19T08:55:31;102102.00;;;25.30;31.70
75668;BME280;64266;48.798;44.756;2023-09-19T09:00:36;102084.88;;;25.30;31.25
75668;BME280;64266;48.798;44.756;2023-09-19T09:05:41;102091.13;;;25.30;31.62
75668;BME280;64266;48.798;44.756;2023-09-19T09:10:46;102081.09;;;25.26;30.53
75668;BME280;64266;48.798;44.756;2023-09-19T09:15:51;102079.75;;;25.28;30.23
75668;BME280;64266;48.798;44.756;2023-09-19T09:20:57;102060.50;;;25.20;30.10
75668;BME280;64266;48.798;44.756;2023-09-19T09:26:01;102066.38;;;25.32;29.62
75668;BME280;64266;48.798;44.756;2023-09-19T09:46:16;101974.50;;;24.82;29.12
75668;BME280;64266;48.798;44.756;2023-09-19T09:52:55;102000.63;;;25.06;28.96
75668;BME280;64266;48.798;44.756;2023-09-19T09:58:16;102062.22;;;25.50;27.72
75668;BME280;64266;48.798;44.756;2023-09-19T10:03:37;102036.63;;;25.22;28.32
75668;BME280;64266;48.798;44.756;2023-09-19T10:09:07;102066.38;;;25.32;28.00
75668;BME280;64266;48.798;44.756;2023-09-19T10:14:16;102028.38;;;25.32;28.85
75668;BME280;64266;48.798;44.756;2023-09-19T10:19:23;102046.59;;;25.65;28.26
75668;BME280;64266;48.798;44.756;2023-09-19T10:24:34;102052.72;;;25.76;28.13
75668;BME280;64266;48.798;44.756;2023-09-19T10:29:51;102027.16;;;25.77;28.42
75668;BME280;64266;48.798;44.756;2023-09-19T10:34:58;102048.50;;;25.88;27.54
75668;BME280;64266;48.798;44.756;2023-09-19T10:40:06;102044.97;;;25.64;27.75
75668;BME280;64266;48.798;44.756;2023-09-19T10:45:17;102040.38;;;25.60;27.79
75668;BME280;64266;48.798;44.756;2023-09-19T10:50:23;102052.81;;;25.66;27.98
75668;BME280;64266;48.798;44.756;2023-09-19T10:55:28;102041.03;;;25.47;27.50
75668;BME280;64266;48.798;44.756;2023-09-19T11:00:50;102035.81;;;25.21;28.53
75668;BME280;64266;48.798;44.756;2023-09-19T11:06:26;102033.78;;;25.03;28.54
75668;BME280;64266;48.798;44.756;2023-09-19T11:22:19;102036.34;;;24.79;28.95
75668;BME280;64266;48.798;44.756;2023-09-19T11:27:24;102039.59;;;24.87;28.76
75668;BME280;64266;48.798;44.756;2023-09-19T11:38:10;102037.16;;;24.85;28.73
75668;BME280;64266;48.798;44.756;2023-09-19T11:43:29;102020.63;;;24.76;28.49
75668;BME280;64266;48.798;44.756;2023-09-19T11:48:40;102026.06;;;24.82;28.74
75668;BME280;64266;48.798;44.756;2023-09-19T11:53:46;102011.44;;;24.72;29.15
75668;BME280;64266;48.798;44.756;2023-09-19T11:58:55;102009.28;;;24.69;29.02
75668;BME280;64266;48.798;44.756;2023-09-19T12:04:01;102007.41;;;24.65;28.85
75668;BME280;64266;48.798;44.756;2023-09-19T12:09:05;102021.53;;;24.62;28.91
75668;BME280;64266;48.798;44.756;2023-09-19T12:14:22;102024.25;;;24.62;28.91
75668;BME280;64266;48.798;44.756;2023-09-19T12:19:28;102009.13;;;24.46;29.00
75668;BME280;64266;48.798;44.756;2023-09-19T12:24:34;102003.47;;;24.42;29.24
75668;BME280;64266;48.798;44.756;2023-09-19T12:29:46;102004.25;;;24.48;29.43
75668;BME280;64266;48.798;44.756;2023-09-19T12:34:52;102025.09;;;24.57;29.44
75668;BME280;64266;48.798;44.756;2023-09-19T12:40:07;102024.53;;;24.55;29.57
75668;BME280;64266;48.798;44.756;2023-09-19T12:45:20;101996.69;;;24.40;29.26
75668;BME280;64266;48.798;44.756;2023-09-19T12:50:24;102020.28;;;24.44;30.01
75668;BME280;64266;48.798;44.756;2023-09-19T12:55:32;102021.16;;;24.24;30.07
75668;BME280;64266;48.798;44.756;2023-09-19T13:00:42;102010.38;;;24.14;30.53
75668;BME280;64266;48.798;44.756;2023-09-19T13:05:52;102028.53;;;24.19;30.91
75668;BME280;64266;48.798;44.756;2023-09-19T13:16:11;102006.66;;;23.90;30.44
75668;BME280;64266;48.798;44.756;2023-09-19T13:21:33;101991.78;;;23.72;31.27
75668;BME280;64266;48.798;44.756;2023-09-19T13:26:41;101998.81;;;23.73;31.32
75668;BME280;64266;48.798;44.756;2023-09-19T13:31:51;102021.28;;;23.79;30.71
75668;BME280;64266;48.798;44.756;2023-09-19T13:36:56;101983.69;;;23.57;31.63
75668;BME280;64266;48.798;44.756;2023-09-19T13:42:02;102006.69;;;23.60;31.64
75668;BME280;64266;48.798;44.756;2023-09-19T13:47:05;102017.00;;;23.58;31.70
75668;BME280;64266;48.798;44.756;2023-09-19T13:52:13;102006.19;;;23.48;32.27
75668;BME280;64266;48.798;44.756;2023-09-19T13:57:16;102008.06;;;23.37;32.17
75668;BME280;64266;48.798;44.756;2023-09-19T14:02:19;102016.47;;;23.31;32.68
75668;BME280;64266;48.798;44.756;2023-09-19T14:07:23;102015.66;;;23.25;32.78
75668;BME280;64266;48.798;44.756;2023-09-19T14:12:26;102008.06;;;23.12;33.53
75668;BME280;64266;48.798;44.756;2023-09-19T14:17:29;102010.75;;;23.02;33.43
75668;BME280;64266;48.798;44.756;2023-09-19T14:22:42;102025.66;;;22.94;34.18
75668;BME280;64266;48.798;44.756;2023-09-19T14:27:46;102010.47;;;22.73;34.42
75668;BME280;64266;48.798;44.756;2023-09-19T14:32:50;102018.03;;;22.66;34.75
75668;BME280;64266;48.798;44.756;2023-09-19T14:37:53;102024.47;;;22.60;35.93
75668;BME280;64266;48.798;44.756;2023-09-19T14:42:55;102011.16;;;22.43;35.88
75668;BME280;64266;48.798;44.756;2023-09-19T14:47:58;102012.69;;;22.24;37.12
75668;BME280;64266;48.798;44.756;2023-09-19T14:53:01;102026.72;;;22.16;38.42
75668;BME280;64266;48.798;44.756;2023-09-19T14:58:05;102021.47;;;21.89;39.50
75668;BME280;64266;48.798;44.756;2023-09-19T15:03:07;102029.47;;;21.79;40.38
75668;BME280;64266;48.798;44.756;2023-09-19T15:08:10;102017.41;;;21.50;41.03
75668;BME280;64266;48.798;44.756;2023-09-19T15:13:22;102007.47;;;21.24;41.71
75668;BME280;64266;48.798;44.756;2023-09-19T15:18:25;102024.16;;;21.16;42.18
75668;BME280;64266;48.798;44.756;2023-09-19T15:23:28;102016.41;;;20.97;42.38
75668;BME280;64266;48.798;44.756;2023-09-19T15:28:34;102020.25;;;20.80;43.43
75668;BME280;64266;48.798;44.756;2023-09-19T15:33:37;102029.28;;;20.64;44.39
75668;BME280;64266;48.798;44.756;2023-09-19T15:39:08;102027.19;;;20.49;44.60
75668;BME280;64266;48.798;44.756;2023-09-19T15:44:15;102014.19;;;20.24;44.88
75668;BME280;64266;48.798;44.756;2023-09-19T15:49:18;102045.75;;;20.24;45.64
75668;BME280;64266;48.798;44.756;2023-09-19T15:54:21;102057.31;;;20.02;47.17
75668;BME280;64266;48.798;44.756;2023-09-19T15:59:24;102061.94;;;19.90;47.56
75668;BME280;64266;48.798;44.756;2023-09-19T16:04:27;102053.09;;;19.73;48.02
75668;BME280;64266;48.798;44.756;2023-09-19T16:09:30;102065.34;;;19.64;48.62
75668;BME280;64266;48.798;44.756;2023-09-19T16:14:33;102061.59;;;19.48;48.72
75668;BME280;64266;48.798;44.756;2023-09-19T16:19:36;102067.38;;;19.40;49.31
75668;BME280;64266;48.798;44.756;2023-09-19T16:24:39;102068.72;;;19.26;50.23
75668;BME280;64266;48.798;44.756;2023-09-19T16:29:41;102072.28;;;19.15;50.12
75668;BME280;64266;48.798;44.756;2023-09-19T16:34:44;102088.34;;;19.10;50.71
75668;BME280;64266;48.798;44.756;2023-09-19T16:39:47;102088.97;;;19.01;51.08
75668;BME280;64266;48.798;44.756;2023-09-19T16:44:50;102097.66;;;18.91;51.55
75668;BME280;64266;48.798;44.756;2023-09-19T16:49:52;102106.41;;;18.86;51.38
75668;BME280;64266;48.798;44.756;2023-09-19T16:54:55;102108.34;;;18.74;51.71
75668;BME280;64266;48.798;44.756;2023-09-19T16:59:59;102108.13;;;18.64;52.57
75668;BME280;64266;48.798;44.756;2023-09-19T17:05:03;102095.88;;;18.45;53.05
75668;BME280;64266;48.798;44.756;2023-09-19T17:10:08;102114.81;;;18.50;53.18
75668;BME280;64266;48.798;44.756;2023-09-19T17:15:11;102124.13;;;18.48;53.15
75668;BME280;64266;48.798;44.756;2023-09-19T17:20:16;102123.34;;;18.35;53.50
75668;BME280;64266;48.798;44.756;2023-09-19T17:25:19;102122.53;;;18.23;53.50
75668;BME280;64266;48.798;44.756;2023-09-19T17:30:23;102130.25;;;18.20;53.43
75668;BME280;64266;48.798;44.756;2023-09-19T17:35:25;102126.75;;;18.08;54.37
75668;BME280;64266;48.798;44.756;2023-09-19T17:40:28;102128.25;;;18.04;54.38
75668;BME280;64266;48.798;44.756;2023-09-19T17:45:31;102134.44;;;17.93;54.70
75668;BME280;64266;48.798;44.756;2023-09-19T17:50:34;102138.75;;;17.94;55.37
75668;BME280;64266;48.798;44.756;2023-09-19T17:55:38;102134.91;;;17.90;56.07
75668;BME280;64266;48.798;44.756;2023-09-19T18:00:41;102147.72;;;17.87;56.34
75668;BME280;64266;48.798;44.756;2023-09-19T18:05:51;102087.09;;;17.45;56.72
75668;BME280;64266;48.798;44.756;2023-09-19T18:10:54;102123.44;;;17.71;57.19
75668;BME280;64266;48.798;44.756;2023-09-19T18:15:57;102141.75;;;17.74;57.37
75668;BME280;64266;48.798;44.756;2023-09-19T18:21:01;102145.47;;;17.73;58.32
75668;BME280;64266;48.798;44.756;2023-09-19T18:26:04;102139.53;;;17.59;58.43
75668;BME280;64266;48.798;44.756;2023-09-19T18:31:09;102139.53;;;17.59;58.50
75668;BME280;64266;48.798;44.756;2023-09-19T18:36:12;102130.94;;;17.51;58.87
75668;BME280;64266;48.798;44.756;2023-09-19T18:41:15;102141.59;;;17.57;59.12
75668;BME280;64266;48.798;44.756;2023-09-19T18:46:18;102134.31;;;17.46;59.74
75668;BME280;64266;48.798;44.756;2023-09-19T18:51:21;102141.31;;;17.47;59.96
75668;BME280;64266;48.798;44.756;2023-09-19T18:56:25;102129.13;;;17.33;60.54
75668;BME280;64266;48.798;44.756;2023-09-19T19:01:28;102148.16;;;17.31;60.82
75668;BME280;64266;48.798;44.756;2023-09-19T19:06:31;102153.59;;;17.25;60.81
75668;BME280;64266;48.798;44.756;2023-09-19T19:11:34;102144.25;;;17.16;61.00
75668;BME280;64266;48.798;44.756;2023-09-19T19:16:39;102128.31;;;17.03;61.05
75668;BME280;64266;48.798;44.756;2023-09-19T19:21:41;102137.84;;;16.99;61.27
75668;BME280;64266;48.798;44.756;2023-09-19T19:26:44;102143.00;;;17.00;61.41
75668;BME280;64266;48.798;44.756;2023-09-19T19:31:47;102138.75;;;16.93;61.96
75668;BME280;64266;48.798;44.756;2023-09-19T19:36:51;102155.22;;;16.96;61.62
75668;BME280;64266;48.798;44.756;2023-09-19T19:41:54;102153.81;;;16.94;61.23
75668;BME280;64266;48.798;44.756;2023-09-19T19:46:56;102153.66;;;16.89;60.83
75668;BME280;64266;48.798;44.756;2023-09-19T19:51:59;102163.94;;;16.92;61.10
75668;BME280;64266;48.798;44.756;2023-09-19T19:57:02;102153.75;;;16.82;61.74
75668;BME280;64266;48.798;44.756;2023-09-19T20:02:06;102162.59;;;16.83;61.74
75668;BME280;64266;48.798;44.756;2023-09-19T20:07:08;102162.75;;;16.69;62.39
75668;BME280;64266;48.798;44.756;2023-09-19T20:12:13;102166.91;;;16.65;62.80
75668;BME280;64266;48.798;44.756;2023-09-19T20:17:15;102158.56;;;16.55;62.58
75668;BME280;64266;48.798;44.756;2023-09-19T20:22:18;102175.25;;;16.57;62.54
75668;BME280;64266;48.798;44.756;2023-09-19T20:27:21;102175.47;;;16.56;63.18
75668;BME280;64266;48.798;44.756;2023-09-19T20:32:24;102155.84;;;16.37;62.96
75668;BME280;64266;48.798;44.756;2023-09-19T20:37:27;102148.69;;;16.31;63.58
75668;BME280;64266;48.798;44.756;2023-09-19T20:42:30;102165.56;;;16.32;63.90
75668;BME280;64266;48.798;44.756;2023-09-19T20:47:33;102162.13;;;16.24;64.17
75668;BME280;64266;48.798;44.756;2023-09-19T20:52:36;102173.28;;;16.21;64.28
75668;BME280;64266;48.798;44.756;2023-09-19T20:57:41;102141.13;;;16.03;64.64
75668;BME280;64266;48.798;44.756;2023-09-19T21:02:43;102161.44;;;16.11;64.48
75668;BME280;64266;48.798;44.756;2023-09-19T21:07:48;102159.22;;;16.08;64.68
75668;BME280;64266;48.798;44.756;2023-09-19T21:12:51;102174.22;;;16.09;64.68
75668;BME280;64266;48.798;44.756;2023-09-19T21:17:53;102165.22;;;16.03;64.68
75668;BME280;64266;48.798;44.756;2023-09-19T21:22:56;102153.19;;;15.88;65.49
75668;BME280;64266;48.798;44.756;2023-09-19T21:27:59;102169.59;;;15.98;65.08
75668;BME280;64266;48.798;44.756;2023-09-19T21:33:04;102151.38;;;15.82;65.14
75668;BME280;64266;48.798;44.756;2023-09-19T21:38:07;102152.84;;;15.84;66.23
75668;BME280;64266;48.798;44.756;2023-09-19T21:43:11;102184.44;;;15.94;65.37
75668;BME280;64266;48.798;44.756;2023-09-19T21:48:14;102165.59;;;15.82;64.94
75668;BME280;64266;48.798;44.756;2023-09-19T21:53:16;102166.63;;;15.81;65.60
75668;BME280;64266;48.798;44.756;2023-09-19T21:58:19;102181.00;;;15.87;65.69
75668;BME280;64266;48.798;44.756;2023-09-19T22:03:22;102183.09;;;15.78;66.14
75668;BME280;64266;48.798;44.756;2023-09-19T22:08:27;102181.88;;;15.81;66.13
75668;BME280;64266;48.798;44.756;2023-09-19T22:13:29;102166.34;;;15.64;66.10
75668;BME280;64266;48.798;44.756;2023-09-19T22:18:34;102184.19;;;15.70;66.62
75668;BME280;64266;48.798;44.756;2023-09-19T22:23:37;102172.56;;;15.58;66.96
75668;BME280;64266;48.798;44.756;2023-09-19T22:28:47;102177.13;;;15.51;67.00
75668;BME280;64266;48.798;44.756;2023-09-19T22:33:55;102196.03;;;15.56;66.96
75668;BME280;64266;48.798;44.756;2023-09-19T22:39:00;102185.13;;;15.51;67.40
75668;BME280;64266;48.798;44.756;2023-09-19T22:44:21;102182.06;;;15.41;67.76
75668;BME280;64266;48.798;44.756;2023-09-19T22:49:23;102183.56;;;15.37;67.83
75668;BME280;64266;48.798;44.756;2023-09-19T22:54:29;102206.75;;;15.43;67.42
75668;BME280;64266;48.798;44.756;2023-09-19T22:59:38;102203.09;;;15.38;68.45
75668;BME280;64266;48.798;44.756;2023-09-19T23:04:43;102211.09;;;15.38;68.38
75668;BME280;64266;48.798;44.756;2023-09-19T23:09:46;102202.53;;;15.23;68.16
75668;BME280;64266;48.798;44.756;2023-09-19T23:14:49;102183.50;;;14.99;69.41
75668;BME280;64266;48.798;44.756;2023-09-19T23:19:51;102204.03;;;15.12;69.53
75668;BME280;64266;48.798;44.756;2023-09-19T23:24:58;102206.47;;;15.13;69.51
75668;BME280;64266;48.798;44.756;2023-09-19T23:30:15;102191.69;;;15.04;69.56
75668;BME280;64266;48.798;44.756;2023-09-19T23:35:20;102210.41;;;15.04;70.49
75668;BME280;64266;48.798;44.756;2023-09-19T23:40:24;102203.63;;;15.02;70.47
75668;BME280;64266;48.798;44.756;2023-09-19T23:45:29;102204.72;;;14.94;70.39
75668;BME280;64266;48.798;44.756;2023-09-19T23:50:32;102206.16;;;14.90;71.31
75668;BME280;64266;48.798;44.756;2023-09-19T23:55:36;102202.47;;;14.85;71.18
